Coburg, Germany
Current Conditions -  °F | °C
As of 7:50 PM on Thursday 23 Oct 2014 (Local Time) from EDQM Reporting Station
Overcast Overcast  
Wind Chill: 45°   Ceiling: 1900
Heat Index: 45°   Visibility: 4mi
Dew Point: 41°   Wind: 1mph
Humidity: 87%   Direction: NA
Pressure: 30.21"   Gusts: NA
Location:  50.26°N, 10.97°E
Report Text: EDQM 231750Z VRB01KT 7000 OVC019 07/05 Q1023
Loading
Personal Weather Stations






























Interactive Weather Map
Tropical Storm Tracking
New forecast layout! Learn more

10-Day Weather Forecast

Advertisements
Track Severe Weather on mobile